Pathein, Burma
Current Conditions -  °F | °C
As of 5:00 AM on Thursday 27 Nov 2014 (Local Time) from VYYY Reporting Station
Clear Clear  
Wind Chill: 70°   Ceiling: Unl
Heat Index: 70°   Visibility: 4mi
Dew Point: 68°   Wind: 2mph
Humidity: 94%   Direction: 340°NNW
Pressure: 29.83"   Gusts: NA
Location:  16.78°N, 94.73°E
Report Text: VYYY 262300Z 34002KT 6000 R21/2000N NSC 21/20 Q1010 NOSIG
Loading
Personal Weather Stations






























Interactive Weather Map New forecast layout! Learn more

10-Day Weather Forecast

Advertisements
Track Severe Weather on mobile